sensor_id;sensor_type;location;lat;lon;timestamp;P1;durP1;ratioP1;P2;durP2;ratioP2
59756;SDS011;45631;51.962;5.974;2023-04-07T00:00:33;37.72;;;25.45;;
59756;SDS011;45631;51.962;5.974;2023-04-07T00:03:01;38.88;;;26.55;;
59756;SDS011;45631;51.962;5.974;2023-04-07T00:05:32;42.95;;;26.92;;
59756;SDS011;45631;51.962;5.974;2023-04-07T00:08:01;43.40;;;26.58;;
59756;SDS011;45631;51.962;5.974;2023-04-07T00:10:30;40.90;;;26.17;;
59756;SDS011;45631;51.962;5.974;2023-04-07T00:12:58;43.92;;;27.33;;
59756;SDS011;45631;51.962;5.974;2023-04-07T00:15:27;42.28;;;25.70;;
59756;SDS011;45631;51.962;5.974;2023-04-07T00:17:55;44.15;;;27.50;;
59756;SDS011;45631;51.962;5.974;2023-04-07T00:20:24;46.15;;;27.30;;
59756;SDS011;45631;51.962;5.974;2023-04-07T00:22:52;46.92;;;26.40;;
59756;SDS011;45631;51.962;5.974;2023-04-07T00:25:20;43.42;;;26.55;;
59756;SDS011;45631;51.962;5.974;2023-04-07T00:27:49;38.53;;;22.75;;
59756;SDS011;45631;51.962;5.974;2023-04-07T00:30:18;44.90;;;23.95;;
59756;SDS011;45631;51.962;5.974;2023-04-07T00:32:46;43.53;;;22.65;;
59756;SDS011;45631;51.962;5.974;2023-04-07T00:35:14;43.55;;;23.63;;
59756;SDS011;45631;51.962;5.974;2023-04-07T00:37:42;40.70;;;23.15;;
59756;SDS011;45631;51.962;5.974;2023-04-07T00:40:11;39.45;;;22.10;;
59756;SDS011;45631;51.962;5.974;2023-04-07T00:42:39;40.20;;;21.50;;
59756;SDS011;45631;51.962;5.974;2023-04-07T00:45:09;38.95;;;22.67;;
59756;SDS011;45631;51.962;5.974;2023-04-07T00:47:38;37.20;;;21.15;;
59756;SDS011;45631;51.962;5.974;2023-04-07T00:50:06;37.40;;;20.08;;
59756;SDS011;45631;51.962;5.974;2023-04-07T00:52:35;40.60;;;21.30;;
59756;SDS011;45631;51.962;5.974;2023-04-07T00:55:04;38.50;;;20.13;;
59756;SDS011;45631;51.962;5.974;2023-04-07T00:57:33;41.47;;;21.13;;
59756;SDS011;45631;51.962;5.974;2023-04-07T01:00:01;36.03;;;19.85;;
59756;SDS011;45631;51.962;5.974;2023-04-07T01:05:10;38.83;;;18.58;;
59756;SDS011;45631;51.962;5.974;2023-04-07T01:07:45;36.88;;;19.45;;
59756;SDS011;45631;51.962;5.974;2023-04-07T01:10:20;35.53;;;19.60;;
59756;SDS011;45631;51.962;5.974;2023-04-07T01:12:56;37.83;;;19.00;;
59756;SDS011;45631;51.962;5.974;2023-04-07T01:15:29;34.53;;;18.13;;
59756;SDS011;45631;51.962;5.974;2023-04-07T01:18:07;36.35;;;19.10;;
59756;SDS011;45631;51.962;5.974;2023-04-07T01:20:40;35.90;;;18.45;;
59756;SDS011;45631;51.962;5.974;2023-04-07T01:23:18;32.58;;;18.48;;
59756;SDS011;45631;51.962;5.974;2023-04-07T01:25:58;37.38;;;18.05;;
59756;SDS011;45631;51.962;5.974;2023-04-07T01:28:54;39.10;;;16.95;;
59756;SDS011;45631;51.962;5.974;2023-04-07T01:31:32;35.00;;;16.77;;
59756;SDS011;45631;51.962;5.974;2023-04-07T01:34:03;34.22;;;16.92;;
59756;SDS011;45631;51.962;5.974;2023-04-07T01:36:36;32.25;;;16.27;;
59756;SDS011;45631;51.962;5.974;2023-04-07T01:39:04;34.17;;;16.95;;
59756;SDS011;45631;51.962;5.974;2023-04-07T01:41:34;33.00;;;16.60;;
59756;SDS011;45631;51.962;5.974;2023-04-07T01:44:03;34.08;;;16.67;;
59756;SDS011;45631;51.962;5.974;2023-04-07T01:46:34;35.38;;;16.60;;
59756;SDS011;45631;51.962;5.974;2023-04-07T01:49:02;35.63;;;17.05;;
59756;SDS011;45631;51.962;5.974;2023-04-07T01:51:32;32.90;;;16.48;;
59756;SDS011;45631;51.962;5.974;2023-04-07T01:54:01;35.40;;;16.85;;
59756;SDS011;45631;51.962;5.974;2023-04-07T01:56:31;32.95;;;15.73;;
59756;SDS011;45631;51.962;5.974;2023-04-07T01:59:00;33.53;;;16.55;;
59756;SDS011;45631;51.962;5.974;2023-04-07T02:01:28;29.77;;;15.45;;
59756;SDS011;45631;51.962;5.974;2023-04-07T02:03:59;33.28;;;15.48;;
59756;SDS011;45631;51.962;5.974;2023-04-07T02:06:34;31.55;;;15.98;;
59756;SDS011;45631;51.962;5.974;2023-04-07T02:09:09;24.48;;;11.90;;
59756;SDS011;45631;51.962;5.974;2023-04-07T02:11:39;23.50;;;11.98;;
59756;SDS011;45631;51.962;5.974;2023-04-07T02:14:10;19.92;;;12.38;;
59756;SDS011;45631;51.962;5.974;2023-04-07T02:16:40;23.92;;;12.32;;
59756;SDS011;45631;51.962;5.974;2023-04-07T02:19:13;28.70;;;12.85;;
59756;SDS011;45631;51.962;5.974;2023-04-07T02:21:42;29.55;;;13.77;;
59756;SDS011;45631;51.962;5.974;2023-04-07T02:24:12;28.27;;;13.48;;
59756;SDS011;45631;51.962;5.974;2023-04-07T02:26:41;30.17;;;13.57;;
59756;SDS011;45631;51.962;5.974;2023-04-07T02:29:09;26.88;;;13.88;;
59756;SDS011;45631;51.962;5.974;2023-04-07T02:31:37;27.40;;;13.82;;
59756;SDS011;45631;51.962;5.974;2023-04-07T02:34:05;29.30;;;14.48;;
59756;SDS011;45631;51.962;5.974;2023-04-07T02:36:35;26.23;;;14.02;;
59756;SDS011;45631;51.962;5.974;2023-04-07T02:39:03;25.75;;;13.35;;
59756;SDS011;45631;51.962;5.974;2023-04-07T02:41:32;29.20;;;14.95;;
59756;SDS011;45631;51.962;5.974;2023-04-07T02:44:00;28.98;;;14.25;;
59756;SDS011;45631;51.962;5.974;2023-04-07T02:46:28;30.55;;;14.27;;
59756;SDS011;45631;51.962;5.974;2023-04-07T02:48:56;26.83;;;14.02;;
59756;SDS011;45631;51.962;5.974;2023-04-07T02:51:24;29.42;;;14.77;;
59756;SDS011;45631;51.962;5.974;2023-04-07T02:53:54;30.92;;;13.73;;
59756;SDS011;45631;51.962;5.974;2023-04-07T02:56:22;31.08;;;15.30;;
59756;SDS011;45631;51.962;5.974;2023-04-07T02:58:50;26.38;;;13.07;;
59756;SDS011;45631;51.962;5.974;2023-04-07T03:01:18;27.75;;;13.65;;
59756;SDS011;45631;51.962;5.974;2023-04-07T03:03:47;23.60;;;12.77;;
59756;SDS011;45631;51.962;5.974;2023-04-07T03:06:15;25.13;;;13.68;;
59756;SDS011;45631;51.962;5.974;2023-04-07T03:08:43;25.90;;;13.38;;
59756;SDS011;45631;51.962;5.974;2023-04-07T03:11:13;26.05;;;12.68;;
59756;SDS011;45631;51.962;5.974;2023-04-07T03:13:41;28.48;;;13.75;;
59756;SDS011;45631;51.962;5.974;2023-04-07T03:16:09;28.13;;;12.93;;
59756;SDS011;45631;51.962;5.974;2023-04-07T03:18:37;25.88;;;13.40;;
59756;SDS011;45631;51.962;5.974;2023-04-07T03:21:05;24.30;;;12.98;;
59756;SDS011;45631;51.962;5.974;2023-04-07T03:23:34;29.60;;;13.55;;
59756;SDS011;45631;51.962;5.974;2023-04-07T03:26:02;27.67;;;13.43;;
59756;SDS011;45631;51.962;5.974;2023-04-07T03:28:32;27.67;;;12.65;;
59756;SDS011;45631;51.962;5.974;2023-04-07T03:31:00;26.30;;;13.38;;
59756;SDS011;45631;51.962;5.974;2023-04-07T03:33:28;24.63;;;12.35;;
59756;SDS011;45631;51.962;5.974;2023-04-07T03:35:56;24.33;;;11.23;;
59756;SDS011;45631;51.962;5.974;2023-04-07T03:38:24;21.27;;;10.30;;
59756;SDS011;45631;51.962;5.974;2023-04-07T03:40:52;24.25;;;11.60;;
59756;SDS011;45631;51.962;5.974;2023-04-07T03:43:21;22.38;;;9.27;;
59756;SDS011;45631;51.962;5.974;2023-04-07T03:45:50;18.00;;;10.38;;
59756;SDS011;45631;51.962;5.974;2023-04-07T03:48:19;21.83;;;10.48;;
59756;SDS011;45631;51.962;5.974;2023-04-07T03:50:47;20.75;;;10.63;;
59756;SDS011;45631;51.962;5.974;2023-04-07T03:53:16;22.95;;;9.98;;
59756;SDS011;45631;51.962;5.974;2023-04-07T03:55:44;20.35;;;9.50;;
59756;SDS011;45631;51.962;5.974;2023-04-07T03:58:13;21.40;;;10.05;;
59756;SDS011;45631;51.962;5.974;2023-04-07T04:00:41;17.92;;;10.00;;
59756;SDS011;45631;51.962;5.974;2023-04-07T04:03:10;18.30;;;10.10;;
59756;SDS011;45631;51.962;5.974;2023-04-07T04:05:39;22.92;;;10.68;;
59756;SDS011;45631;51.962;5.974;2023-04-07T04:08:07;21.83;;;11.68;;
59756;SDS011;45631;51.962;5.974;2023-04-07T04:10:35;26.08;;;11.27;;
59756;SDS011;45631;51.962;5.974;2023-04-07T04:13:06;26.30;;;11.07;;
59756;SDS011;45631;51.962;5.974;2023-04-07T04:15:34;24.65;;;11.73;;
59756;SDS011;45631;51.962;5.974;2023-04-07T04:18:02;21.38;;;11.48;;
59756;SDS011;45631;51.962;5.974;2023-04-07T04:20:32;23.30;;;11.40;;
59756;SDS011;45631;51.962;5.974;2023-04-07T04:23:00;23.52;;;11.18;;
59756;SDS011;45631;51.962;5.974;2023-04-07T04:25:31;22.30;;;11.55;;
59756;SDS011;45631;51.962;5.974;2023-04-07T04:27:59;24.45;;;11.85;;
59756;SDS011;45631;51.962;5.974;2023-04-07T04:30:27;31.05;;;13.88;;
59756;SDS011;45631;51.962;5.974;2023-04-07T04:32:55;28.15;;;14.27;;
59756;SDS011;45631;51.962;5.974;2023-04-07T04:35:24;24.75;;;13.57;;
59756;SDS011;45631;51.962;5.974;2023-04-07T04:37:56;25.65;;;14.13;;
59756;SDS011;45631;51.962;5.974;2023-04-07T04:40:24;28.50;;;14.32;;
59756;SDS011;45631;51.962;5.974;2023-04-07T04:42:52;27.02;;;14.40;;
59756;SDS011;45631;51.962;5.974;2023-04-07T04:45:20;27.77;;;14.90;;
59756;SDS011;45631;51.962;5.974;2023-04-07T04:47:48;29.08;;;14.60;;
59756;SDS011;45631;51.962;5.974;2023-04-07T04:50:17;30.95;;;15.25;;
59756;SDS011;45631;51.962;5.974;2023-04-07T04:52:45;34.20;;;15.73;;
59756;SDS011;45631;51.962;5.974;2023-04-07T04:55:14;33.42;;;15.93;;
59756;SDS011;45631;51.962;5.974;2023-04-07T04:57:43;30.63;;;15.07;;
59756;SDS011;45631;51.962;5.974;2023-04-07T05:00:11;26.08;;;14.13;;
59756;SDS011;45631;51.962;5.974;2023-04-07T05:02:40;27.75;;;14.45;;
59756;SDS011;45631;51.962;5.974;2023-04-07T05:05:09;29.90;;;13.25;;
59756;SDS011;45631;51.962;5.974;2023-04-07T05:07:37;23.15;;;12.48;;
59756;SDS011;45631;51.962;5.974;2023-04-07T05:10:06;23.58;;;13.10;;
59756;SDS011;45631;51.962;5.974;2023-04-07T05:12:37;22.27;;;12.35;;
59756;SDS011;45631;51.962;5.974;2023-04-07T05:15:05;28.65;;;14.23;;
59756;SDS011;45631;51.962;5.974;2023-04-07T05:17:34;26.48;;;12.95;;
59756;SDS011;45631;51.962;5.974;2023-04-07T05:20:05;25.10;;;13.95;;
59756;SDS011;45631;51.962;5.974;2023-04-07T05:22:35;30.48;;;13.85;;
59756;SDS011;45631;51.962;5.974;2023-04-07T05:25:04;28.48;;;14.55;;
59756;SDS011;45631;51.962;5.974;2023-04-07T05:27:33;27.90;;;13.80;;
59756;SDS011;45631;51.962;5.974;2023-04-07T05:30:02;28.45;;;13.68;;
59756;SDS011;45631;51.962;5.974;2023-04-07T05:32:31;24.48;;;13.00;;
59756;SDS011;45631;51.962;5.974;2023-04-07T05:34:59;24.15;;;12.68;;
59756;SDS011;45631;51.962;5.974;2023-04-07T05:37:27;27.13;;;14.05;;
59756;SDS011;45631;51.962;5.974;2023-04-07T05:39:55;23.08;;;12.65;;
59756;SDS011;45631;51.962;5.974;2023-04-07T05:42:24;22.80;;;11.70;;
59756;SDS011;45631;51.962;5.974;2023-04-07T05:44:52;25.15;;;11.75;;
59756;SDS011;45631;51.962;5.974;2023-04-07T05:47:21;24.90;;;11.30;;
59756;SDS011;45631;51.962;5.974;2023-04-07T05:49:49;25.38;;;11.07;;
59756;SDS011;45631;51.962;5.974;2023-04-07T05:52:18;19.00;;;10.32;;
59756;SDS011;45631;51.962;5.974;2023-04-07T05:54:46;25.65;;;12.40;;
59756;SDS011;45631;51.962;5.974;2023-04-07T05:57:14;23.58;;;12.18;;
59756;SDS011;45631;51.962;5.974;2023-04-07T05:59:42;22.75;;;11.45;;
59756;SDS011;45631;51.962;5.974;2023-04-07T06:02:11;25.08;;;11.40;;
59756;SDS011;45631;51.962;5.974;2023-04-07T06:04:42;20.33;;;11.70;;
59756;SDS011;45631;51.962;5.974;2023-04-07T06:07:10;23.35;;;11.90;;
59756;SDS011;45631;51.962;5.974;2023-04-07T06:09:38;22.35;;;11.27;;
59756;SDS011;45631;51.962;5.974;2023-04-07T06:12:08;26.17;;;11.82;;
59756;SDS011;45631;51.962;5.974;2023-04-07T06:14:37;21.40;;;11.70;;
59756;SDS011;45631;51.962;5.974;2023-04-07T06:17:05;27.17;;;12.15;;
59756;SDS011;45631;51.962;5.974;2023-04-07T06:19:34;20.05;;;11.80;;
59756;SDS011;45631;51.962;5.974;2023-04-07T06:22:03;22.42;;;11.90;;
59756;SDS011;45631;51.962;5.974;2023-04-07T06:24:31;27.95;;;12.55;;
59756;SDS011;45631;51.962;5.974;2023-04-07T06:27:00;25.08;;;13.13;;
59756;SDS011;45631;51.962;5.974;2023-04-07T06:29:30;22.77;;;12.82;;
59756;SDS011;45631;51.962;5.974;2023-04-07T06:31:59;27.77;;;13.38;;
59756;SDS011;45631;51.962;5.974;2023-04-07T06:34:28;22.45;;;13.13;;
59756;SDS011;45631;51.962;5.974;2023-04-07T06:36:56;22.02;;;11.88;;
59756;SDS011;45631;51.962;5.974;2023-04-07T06:39:26;21.88;;;11.07;;
59756;SDS011;45631;51.962;5.974;2023-04-07T06:41:55;24.70;;;10.70;;
59756;SDS011;45631;51.962;5.974;2023-04-07T06:44:25;20.45;;;10.57;;
59756;SDS011;45631;51.962;5.974;2023-04-07T06:46:53;18.17;;;10.32;;
59756;SDS011;45631;51.962;5.974;2023-04-07T06:49:21;22.15;;;9.75;;
59756;SDS011;45631;51.962;5.974;2023-04-07T06:51:50;21.75;;;9.32;;
59756;SDS011;45631;51.962;5.974;2023-04-07T06:54:18;17.02;;;9.57;;
59756;SDS011;45631;51.962;5.974;2023-04-07T06:56:48;17.38;;;9.57;;
59756;SDS011;45631;51.962;5.974;2023-04-07T07:01:47;19.65;;;10.73;;
59756;SDS011;45631;51.962;5.974;2023-04-07T07:04:15;19.10;;;9.82;;
59756;SDS011;45631;51.962;5.974;2023-04-07T07:06:44;20.88;;;9.27;;
59756;SDS011;45631;51.962;5.974;2023-04-07T07:09:12;19.55;;;8.70;;
59756;SDS011;45631;51.962;5.974;2023-04-07T07:11:40;19.42;;;8.32;;
59756;SDS011;45631;51.962;5.974;2023-04-07T07:14:09;16.67;;;8.00;;
59756;SDS011;45631;51.962;5.974;2023-04-07T07:16:37;17.25;;;8.07;;
59756;SDS011;45631;51.962;5.974;2023-04-07T07:19:06;15.65;;;7.28;;
59756;SDS011;45631;51.962;5.974;2023-04-07T07:21:35;14.00;;;7.65;;
59756;SDS011;45631;51.962;5.974;2023-04-07T07:24:03;15.50;;;7.85;;
59756;SDS011;45631;51.962;5.974;2023-04-07T07:26:31;18.95;;;8.68;;
59756;SDS011;45631;51.962;5.974;2023-04-07T07:28:59;19.92;;;7.88;;
59756;SDS011;45631;51.962;5.974;2023-04-07T07:31:29;16.58;;;7.50;;
59756;SDS011;45631;51.962;5.974;2023-04-07T07:33:57;17.52;;;7.65;;
59756;SDS011;45631;51.962;5.974;2023-04-07T07:36:26;15.48;;;6.75;;
59756;SDS011;45631;51.962;5.974;2023-04-07T07:38:54;14.07;;;7.05;;
59756;SDS011;45631;51.962;5.974;2023-04-07T07:41:22;14.35;;;6.78;;
59756;SDS011;45631;51.962;5.974;2023-04-07T07:43:50;15.30;;;7.30;;
59756;SDS011;45631;51.962;5.974;2023-04-07T07:46:18;14.15;;;7.00;;
59756;SDS011;45631;51.962;5.974;2023-04-07T07:48:48;12.10;;;6.82;;
59756;SDS011;45631;51.962;5.974;2023-04-07T07:51:16;11.20;;;5.57;;
59756;SDS011;45631;51.962;5.974;2023-04-07T07:53:44;11.18;;;5.88;;
59756;SDS011;45631;51.962;5.974;2023-04-07T07:56:13;10.65;;;5.85;;
59756;SDS011;45631;51.962;5.974;2023-04-07T07:58:41;13.57;;;5.80;;
59756;SDS011;45631;51.962;5.974;2023-04-07T08:01:09;13.27;;;5.70;;
59756;SDS011;45631;51.962;5.974;2023-04-07T08:03:37;12.73;;;6.20;;
59756;SDS011;45631;51.962;5.974;2023-04-07T08:06:07;11.10;;;5.15;;
59756;SDS011;45631;51.962;5.974;2023-04-07T08:08:35;10.25;;;5.60;;
59756;SDS011;45631;51.962;5.974;2023-04-07T08:11:06;10.82;;;5.32;;
59756;SDS011;45631;51.962;5.974;2023-04-07T08:13:36;11.65;;;5.10;;
59756;SDS011;45631;51.962;5.974;2023-04-07T08:16:05;10.88;;;5.47;;
59756;SDS011;45631;51.962;5.974;2023-04-07T08:18:33;11.43;;;5.07;;
59756;SDS011;45631;51.962;5.974;2023-04-07T08:21:02;11.82;;;4.78;;
59756;SDS011;45631;51.962;5.974;2023-04-07T08:23:32;9.07;;;4.18;;
59756;SDS011;45631;51.962;5.974;2023-04-07T08:26:00;8.00;;;3.53;;
59756;SDS011;45631;51.962;5.974;2023-04-07T08:28:28;8.23;;;4.18;;
59756;SDS011;45631;51.962;5.974;2023-04-07T08:30:56;10.77;;;5.00;;
59756;SDS011;45631;51.962;5.974;2023-04-07T08:33:24;10.43;;;5.20;;
59756;SDS011;45631;51.962;5.974;2023-04-07T08:35:53;9.38;;;4.28;;
59756;SDS011;45631;51.962;5.974;2023-04-07T08:38:21;8.55;;;3.65;;
59756;SDS011;45631;51.962;5.974;2023-04-07T08:40:52;9.95;;;4.07;;
59756;SDS011;45631;51.962;5.974;2023-04-07T08:43:25;11.82;;;4.75;;
59756;SDS011;45631;51.962;5.974;2023-04-07T08:45:54;7.60;;;3.83;;
59756;SDS011;45631;51.962;5.974;2023-04-07T08:48:23;10.85;;;4.60;;
59756;SDS011;45631;51.962;5.974;2023-04-07T08:50:55;8.13;;;3.42;;
59756;SDS011;45631;51.962;5.974;2023-04-07T08:53:25;8.95;;;4.10;;
59756;SDS011;45631;51.962;5.974;2023-04-07T08:55:59;8.02;;;3.95;;
59756;SDS011;45631;51.962;5.974;2023-04-07T08:58:28;10.80;;;4.40;;
59756;SDS011;45631;51.962;5.974;2023-04-07T09:00:56;9.43;;;4.25;;
59756;SDS011;45631;51.962;5.974;2023-04-07T09:03:25;9.98;;;4.70;;
59756;SDS011;45631;51.962;5.974;2023-04-07T09:05:54;9.18;;;4.70;;
59756;SDS011;45631;51.962;5.974;2023-04-07T09:08:23;11.98;;;5.20;;
59756;SDS011;45631;51.962;5.974;2023-04-07T09:10:51;14.27;;;7.10;;
59756;SDS011;45631;51.962;5.974;2023-04-07T09:13:21;13.32;;;5.95;;
59756;SDS011;45631;51.962;5.974;2023-04-07T09:15:51;9.57;;;4.97;;
59756;SDS011;45631;51.962;5.974;2023-04-07T09:18:19;10.98;;;6.80;;
59756;SDS011;45631;51.962;5.974;2023-04-07T09:20:54;11.18;;;6.15;;
59756;SDS011;45631;51.962;5.974;2023-04-07T09:23:26;12.18;;;5.72;;
59756;SDS011;45631;51.962;5.974;2023-04-07T09:25:56;14.00;;;5.55;;
59756;SDS011;45631;51.962;5.974;2023-04-07T09:28:43;13.23;;;6.28;;
59756;SDS011;45631;51.962;5.974;2023-04-07T09:31:12;12.18;;;5.95;;
59756;SDS011;45631;51.962;5.974;2023-04-07T09:33:43;12.52;;;5.47;;
59756;SDS011;45631;51.962;5.974;2023-04-07T09:36:12;14.38;;;6.30;;
59756;SDS011;45631;51.962;5.974;2023-04-07T09:38:40;11.18;;;6.00;;
59756;SDS011;45631;51.962;5.974;2023-04-07T09:41:10;12.65;;;5.85;;
59756;SDS011;45631;51.962;5.974;2023-04-07T09:43:40;12.75;;;6.22;;
59756;SDS011;45631;51.962;5.974;2023-04-07T09:46:12;13.70;;;6.55;;
59756;SDS011;45631;51.962;5.974;2023-04-07T09:48:41;14.02;;;6.53;;
59756;SDS011;45631;51.962;5.974;2023-04-07T09:51:13;10.82;;;7.00;;
59756;SDS011;45631;51.962;5.974;2023-04-07T09:53:47;12.55;;;6.60;;
59756;SDS011;45631;51.962;5.974;2023-04-07T09:56:17;15.00;;;7.25;;
59756;SDS011;45631;51.962;5.974;2023-04-07T09:58:48;12.85;;;6.60;;
59756;SDS011;45631;51.962;5.974;2023-04-07T10:01:19;12.52;;;6.63;;
59756;SDS011;45631;51.962;5.974;2023-04-07T10:03:48;11.45;;;5.70;;
59756;SDS011;45631;51.962;5.974;2023-04-07T10:06:18;15.68;;;6.85;;
59756;SDS011;45631;51.962;5.974;2023-04-07T10:08:47;13.45;;;5.93;;
59756;SDS011;45631;51.962;5.974;2023-04-07T10:11:15;15.90;;;6.60;;
59756;SDS011;45631;51.962;5.974;2023-04-07T10:13:46;16.83;;;7.25;;
59756;SDS011;45631;51.962;5.974;2023-04-07T10:16:15;24.15;;;7.78;;
59756;SDS011;45631;51.962;5.974;2023-04-07T10:18:45;16.63;;;6.95;;
59756;SDS011;45631;51.962;5.974;2023-04-07T10:21:13;9.85;;;5.72;;
59756;SDS011;45631;51.962;5.974;2023-04-07T10:23:46;13.50;;;5.72;;
59756;SDS011;45631;51.962;5.974;2023-04-07T10:26:19;12.07;;;4.90;;
59756;SDS011;45631;51.962;5.974;2023-04-07T10:28:52;12.00;;;5.40;;
59756;SDS011;45631;51.962;5.974;2023-04-07T10:31:27;10.35;;;5.10;;
59756;SDS011;45631;51.962;5.974;2023-04-07T10:33:57;11.85;;;5.55;;
59756;SDS011;45631;51.962;5.974;2023-04-07T10:36:25;12.00;;;5.22;;
59756;SDS011;45631;51.962;5.974;2023-04-07T10:41:46;22.03;;;7.43;;
59756;SDS011;45631;51.962;5.974;2023-04-07T10:47:15;17.95;;;6.70;;
59756;SDS011;45631;51.962;5.974;2023-04-07T10:52:45;13.38;;;5.93;;
59756;SDS011;45631;51.962;5.974;2023-04-07T10:55:33;13.43;;;6.30;;
59756;SDS011;45631;51.962;5.974;2023-04-07T11:01:17;11.43;;;5.60;;
59756;SDS011;45631;51.962;5.974;2023-04-07T11:03:57;15.13;;;6.07;;
59756;SDS011;45631;51.962;5.974;2023-04-07T11:06:28;13.82;;;6.43;;
59756;SDS011;45631;51.962;5.974;2023-04-07T11:08:57;12.63;;;5.32;;
59756;SDS011;45631;51.962;5.974;2023-04-07T11:11:35;12.52;;;5.22;;
59756;SDS011;45631;51.962;5.974;2023-04-07T11:14:05;17.45;;;7.25;;
59756;SDS011;45631;51.962;5.974;2023-04-07T11:16:34;19.73;;;6.15;;
59756;SDS011;45631;51.962;5.974;2023-04-07T11:19:06;14.48;;;5.68;;
59756;SDS011;45631;51.962;5.974;2023-04-07T11:21:36;9.88;;;5.05;;
59756;SDS011;45631;51.962;5.974;2023-04-07T11:24:04;9.63;;;4.25;;
59756;SDS011;45631;51.962;5.974;2023-04-07T11:26:39;11.63;;;5.38;;
59756;SDS011;45631;51.962;5.974;2023-04-07T11:29:07;10.52;;;5.25;;
59756;SDS011;45631;51.962;5.974;2023-04-07T11:31:37;10.90;;;5.65;;
59756;SDS011;45631;51.962;5.974;2023-04-07T11:34:05;12.88;;;5.82;;
59756;SDS011;45631;51.962;5.974;2023-04-07T11:36:36;11.57;;;6.53;;
59756;SDS011;45631;51.962;5.974;2023-04-07T11:39:05;11.60;;;6.25;;
59756;SDS011;45631;51.962;5.974;2023-04-07T11:41:45;15.07;;;6.10;;
59756;SDS011;45631;51.962;5.974;2023-04-07T11:44:15;13.85;;;6.75;;
59756;SDS011;45631;51.962;5.974;2023-04-07T11:46:51;11.18;;;6.05;;
59756;SDS011;45631;51.962;5.974;2023-04-07T11:49:20;13.30;;;6.53;;
59756;SDS011;45631;51.962;5.974;2023-04-07T11:51:57;13.43;;;6.68;;
59756;SDS011;45631;51.962;5.974;2023-04-07T11:54:27;12.02;;;6.38;;
59756;SDS011;45631;51.962;5.974;2023-04-07T11:57:06;13.93;;;6.35;;
59756;SDS011;45631;51.962;5.974;2023-04-07T11:59:39;15.98;;;6.65;;
59756;SDS011;45631;51.962;5.974;2023-04-07T12:02:08;15.45;;;7.20;;
59756;SDS011;45631;51.962;5.974;2023-04-07T12:04:54;14.57;;;6.00;;
59756;SDS011;45631;51.962;5.974;2023-04-07T12:07:24;12.85;;;5.95;;
59756;SDS011;45631;51.962;5.974;2023-04-07T12:09:53;12.85;;;5.60;;
59756;SDS011;45631;51.962;5.974;2023-04-07T12:12:26;10.48;;;5.10;;
59756;SDS011;45631;51.962;5.974;2023-04-07T12:14:55;11.38;;;5.63;;
59756;SDS011;45631;51.962;5.974;2023-04-07T12:17:23;14.85;;;5.80;;
59756;SDS011;45631;51.962;5.974;2023-04-07T12:19:53;11.43;;;5.75;;
59756;SDS011;45631;51.962;5.974;2023-04-07T12:22:21;11.70;;;5.85;;
59756;SDS011;45631;51.962;5.974;2023-04-07T12:24:51;11.80;;;5.78;;
59756;SDS011;45631;51.962;5.974;2023-04-07T12:27:19;14.23;;;6.72;;
59756;SDS011;45631;51.962;5.974;2023-04-07T12:30:06;14.23;;;7.10;;
59756;SDS011;45631;51.962;5.974;2023-04-07T12:32:35;12.48;;;6.85;;
59756;SDS011;45631;51.962;5.974;2023-04-07T12:35:04;13.30;;;6.35;;
59756;SDS011;45631;51.962;5.974;2023-04-07T12:37:32;11.93;;;6.18;;
59756;SDS011;45631;51.962;5.974;2023-04-07T12:40:02;11.90;;;6.43;;
59756;SDS011;45631;51.962;5.974;2023-04-07T12:42:30;9.55;;;5.72;;
59756;SDS011;45631;51.962;5.974;2023-04-07T12:45:01;14.48;;;5.72;;
59756;SDS011;45631;51.962;5.974;2023-04-07T12:47:29;11.25;;;5.63;;
59756;SDS011;45631;51.962;5.974;2023-04-07T12:49:57;10.23;;;5.57;;
59756;SDS011;45631;51.962;5.974;2023-04-07T12:52:26;12.88;;;6.47;;
59756;SDS011;45631;51.962;5.974;2023-04-07T12:54:54;11.85;;;5.95;;
59756;SDS011;45631;51.962;5.974;2023-04-07T12:57:23;12.10;;;5.88;;
59756;SDS011;45631;51.962;5.974;2023-04-07T12:59:52;14.98;;;6.88;;
59756;SDS011;45631;51.962;5.974;2023-04-07T13:02:21;14.65;;;5.95;;
59756;SDS011;45631;51.962;5.974;2023-04-07T13:04:49;11.52;;;6.45;;
59756;SDS011;45631;51.962;5.974;2023-04-07T13:07:18;11.75;;;6.20;;
59756;SDS011;45631;51.962;5.974;2023-04-07T13:09:47;12.77;;;6.03;;
59756;SDS011;45631;51.962;5.974;2023-04-07T13:12:15;11.45;;;6.22;;
59756;SDS011;45631;51.962;5.974;2023-04-07T13:14:45;11.10;;;5.70;;
59756;SDS011;45631;51.962;5.974;2023-04-07T13:17:25;9.93;;;5.63;;
59756;SDS011;45631;51.962;5.974;2023-04-07T13:19:54;11.07;;;5.13;;
59756;SDS011;45631;51.962;5.974;2023-04-07T13:22:22;15.70;;;5.70;;
59756;SDS011;45631;51.962;5.974;2023-04-07T13:24:51;10.15;;;5.20;;
59756;SDS011;45631;51.962;5.974;2023-04-07T13:27:19;12.38;;;5.88;;
59756;SDS011;45631;51.962;5.974;2023-04-07T13:29:48;11.77;;;5.43;;
59756;SDS011;45631;51.962;5.974;2023-04-07T13:32:16;11.98;;;5.32;;
59756;SDS011;45631;51.962;5.974;2023-04-07T13:34:44;13.15;;;5.63;;
59756;SDS011;45631;51.962;5.974;2023-04-07T13:37:12;10.68;;;5.40;;
59756;SDS011;45631;51.962;5.974;2023-04-07T13:39:41;10.43;;;5.30;;
59756;SDS011;45631;51.962;5.974;2023-04-07T13:42:13;11.38;;;6.00;;
59756;SDS011;45631;51.962;5.974;2023-04-07T13:44:44;16.05;;;5.97;;
59756;SDS011;45631;51.962;5.974;2023-04-07T13:47:14;11.95;;;5.10;;
59756;SDS011;45631;51.962;5.974;2023-04-07T13:49:45;13.27;;;6.30;;
59756;SDS011;45631;51.962;5.974;2023-04-07T13:52:14;10.70;;;5.35;;
59756;SDS011;45631;51.962;5.974;2023-04-07T13:54:42;10.63;;;5.13;;
59756;SDS011;45631;51.962;5.974;2023-04-07T13:57:11;9.00;;;5.20;;
59756;SDS011;45631;51.962;5.974;2023-04-07T13:59:46;11.27;;;5.20;;
59756;SDS011;45631;51.962;5.974;2023-04-07T14:02:16;11.20;;;5.13;;
59756;SDS011;45631;51.962;5.974;2023-04-07T14:04:45;10.95;;;5.35;;
59756;SDS011;45631;51.962;5.974;2023-04-07T14:07:13;13.10;;;5.55;;
59756;SDS011;45631;51.962;5.974;2023-04-07T14:09:41;12.10;;;4.85;;
59756;SDS011;45631;51.962;5.974;2023-04-07T14:12:09;9.95;;;5.38;;
59756;SDS011;45631;51.962;5.974;2023-04-07T14:14:38;11.98;;;5.38;;
59756;SDS011;45631;51.962;5.974;2023-04-07T14:17:06;10.95;;;5.50;;
59756;SDS011;45631;51.962;5.974;2023-04-07T14:19:35;10.35;;;5.25;;
59756;SDS011;45631;51.962;5.974;2023-04-07T14:22:03;10.43;;;5.60;;
59756;SDS011;45631;51.962;5.974;2023-04-07T14:24:32;12.90;;;6.18;;
59756;SDS011;45631;51.962;5.974;2023-04-07T14:27:00;11.32;;;5.30;;
59756;SDS011;45631;51.962;5.974;2023-04-07T14:29:29;11.98;;;5.20;;
59756;SDS011;45631;51.962;5.974;2023-04-07T14:31:57;9.05;;;4.82;;
59756;SDS011;45631;51.962;5.974;2023-04-07T14:34:25;9.75;;;4.68;;
59756;SDS011;45631;51.962;5.974;2023-04-07T14:36:55;12.23;;;5.03;;
59756;SDS011;45631;51.962;5.974;2023-04-07T14:39:24;11.85;;;4.95;;
59756;SDS011;45631;51.962;5.974;2023-04-07T14:41:52;10.13;;;5.00;;
59756;SDS011;45631;51.962;5.974;2023-04-07T14:44:20;9.98;;;4.97;;
59756;SDS011;45631;51.962;5.974;2023-04-07T14:46:51;10.25;;;4.93;;
59756;SDS011;45631;51.962;5.974;2023-04-07T14:49:19;11.57;;;4.60;;
59756;SDS011;45631;51.962;5.974;2023-04-07T14:51:47;9.20;;;4.47;;
59756;SDS011;45631;51.962;5.974;2023-04-07T14:54:17;10.23;;;4.57;;
59756;SDS011;45631;51.962;5.974;2023-04-07T14:56:45;9.05;;;4.35;;
59756;SDS011;45631;51.962;5.974;2023-04-07T14:59:13;8.60;;;4.88;;